createdAt,value
2018-11-07T00:01:20.984Z,39.67
2018-11-07T00:03:50.569Z,36.63
2018-11-07T00:06:19.975Z,37.73
2018-11-07T00:08:49.350Z,36.83
2018-11-07T00:11:18.905Z,38.83
2018-11-07T00:13:48.380Z,38.30
2018-11-07T00:16:17.714Z,37.93
2018-11-07T00:18:47.113Z,36.47
2018-11-07T00:21:16.429Z,34.67
2018-11-07T00:23:45.778Z,34.73
2018-11-07T00:26:15.182Z,34.87
2018-11-07T00:28:44.661Z,33.40
2018-11-07T00:31:14.008Z,33.30
2018-11-07T00:33:43.405Z,32.90
2018-11-07T00:36:12.761Z,34.37
2018-11-07T00:38:42.097Z,77.83
2018-11-07T00:41:11.746Z,33.03
2018-11-07T00:43:42.120Z,36.77
2018-11-07T00:46:11.552Z,36.00
2018-11-07T00:48:41.013Z,31.13
2018-11-07T00:51:10.479Z,31.90
2018-11-07T00:53:40.213Z,33.23
2018-11-07T00:56:09.577Z,31.80
2018-11-07T00:58:38.929Z,31.37
2018-11-07T01:01:08.667Z,32.10
2018-11-07T01:03:37.951Z,32.23
2018-11-07T01:06:07.667Z,31.13
2018-11-07T01:08:37.024Z,32.47
2018-11-07T01:11:06.735Z,31.03
2018-11-07T01:13:36.967Z,31.20
2018-11-07T01:16:06.531Z,30.57
2018-11-07T01:18:35.926Z,29.43
2018-11-07T01:21:05.526Z,29.50
2018-11-07T01:23:35.061Z,32.17
2018-11-07T01:26:04.389Z,30.20
2018-11-07T01:28:33.765Z,30.40
2018-11-07T01:31:03.534Z,30.67
2018-11-07T01:33:32.855Z,30.17
2018-11-07T01:36:02.391Z,29.87
2018-11-07T01:38:31.680Z,29.63
2018-11-07T01:41:01.177Z,28.90
2018-11-07T01:43:30.541Z,30.07
2018-11-07T01:45:59.927Z,30.10
2018-11-07T01:48:29.641Z,29.80
2018-11-07T01:50:58.965Z,28.80
2018-11-07T01:53:28.444Z,28.37
2018-11-07T01:55:57.771Z,28.63
2018-11-07T01:58:27.358Z,28.57
2018-11-07T02:00:57.563Z,28.37
2018-11-07T02:03:27.043Z,28.93
2018-11-07T02:05:56.372Z,27.10
2018-11-07T02:08:31.165Z,28.40
2018-11-07T02:11:01.366Z,30.03
2018-11-07T02:13:30.791Z,29.30
2018-11-07T02:16:00.127Z,29.03
2018-11-07T02:18:29.496Z,28.57
2018-11-07T02:20:59.025Z,28.70
2018-11-07T02:23:28.696Z,29.77
2018-11-07T02:25:58.067Z,28.10
2018-11-07T02:28:28.529Z,28.03
2018-11-07T02:30:58.122Z,27.53
2018-11-07T02:33:27.544Z,28.47
2018-11-07T02:35:57.100Z,29.40
2018-11-07T02:38:26.532Z,27.23
2018-11-07T02:40:55.929Z,27.73
2018-11-07T02:43:25.363Z,27.47
2018-11-07T02:45:54.943Z,26.87
2018-11-07T02:48:24.359Z,28.70
2018-11-07T02:50:53.876Z,26.93
2018-11-07T02:53:23.244Z,26.77
2018-11-07T02:55:52.689Z,26.13
2018-11-07T02:58:22.103Z,25.80
2018-11-07T03:00:51.455Z,26.77
2018-11-07T03:03:20.827Z,24.87
2018-11-07T03:05:50.207Z,27.53
2018-11-07T03:08:19.615Z,26.67
2018-11-07T03:10:49.073Z,26.07
2018-11-07T03:13:18.349Z,31.40
2018-11-07T03:15:47.732Z,31.00
2018-11-07T03:18:17.152Z,28.43
2018-11-07T03:20:46.491Z,29.80
2018-11-07T03:23:15.937Z,30.40
2018-11-07T03:25:45.293Z,31.63
2018-11-07T03:28:14.986Z,32.87
2018-11-07T03:30:44.335Z,34.20
2018-11-07T03:33:13.673Z,33.00
2018-11-07T03:35:42.992Z,33.00
2018-11-07T03:38:15.215Z,34.63
2018-11-07T03:40:44.550Z,36.23
2018-11-07T03:43:15.038Z,34.07
2018-11-07T03:45:49.303Z,34.83
2018-11-07T03:48:18.655Z,36.90
2018-11-07T03:50:48.384Z,37.10
2018-11-07T03:53:17.855Z,37.10
2018-11-07T03:55:47.179Z,37.47
2018-11-07T03:58:16.618Z,38.23
2018-11-07T04:00:46.619Z,37.37
2018-11-07T04:03:16.062Z,37.03
2018-11-07T04:05:45.487Z,35.10
2018-11-07T04:08:14.883Z,36.03
2018-11-07T04:10:44.260Z,37.40
2018-11-07T04:13:13.673Z,35.90
2018-11-07T04:15:43.137Z,37.37
2018-11-07T04:18:12.508Z,37.57
2018-11-07T04:20:41.882Z,38.47
2018-11-07T04:23:11.253Z,37.80
2018-11-07T04:25:40.591Z,39.70
2018-11-07T04:28:10.049Z,38.40
2018-11-07T04:30:39.369Z,47.10
2018-11-07T04:33:08.677Z,39.90
2018-11-07T04:35:38.155Z,38.27
2018-11-07T04:38:07.590Z,39.10
2018-11-07T04:40:37.183Z,38.50
2018-11-07T04:43:07.096Z,35.63
2018-11-07T04:45:36.447Z,38.03
2018-11-07T04:48:06.251Z,68.43
2018-11-07T04:50:35.557Z,48.50
2018-11-07T04:53:04.949Z,40.70
2018-11-07T04:55:34.291Z,38.37
2018-11-07T04:58:03.556Z,38.47
2018-11-07T05:00:32.922Z,36.27
2018-11-07T05:03:02.361Z,37.63
2018-11-07T05:05:31.735Z,38.00
2018-11-07T05:08:01.344Z,38.37
2018-11-07T05:10:30.744Z,36.60
2018-11-07T05:13:00.066Z,37.27
2018-11-07T05:15:29.373Z,37.47
2018-11-07T05:17:58.722Z,35.93
2018-11-07T05:20:28.146Z,37.80
2018-11-07T05:22:57.456Z,37.43
2018-11-07T05:25:26.835Z,37.53
2018-11-07T05:27:56.370Z,38.70
2018-11-07T05:30:25.821Z,36.13
2018-11-07T05:32:55.183Z,35.27
2018-11-07T05:35:24.769Z,36.67
2018-11-07T05:37:54.162Z,36.97
2018-11-07T05:40:23.518Z,35.67
2018-11-07T05:42:53.186Z,35.40
2018-11-07T05:45:22.706Z,36.27
2018-11-07T05:47:52.057Z,34.97
2018-11-07T05:50:21.496Z,34.67
2018-11-07T05:52:50.960Z,36.60
2018-11-07T05:55:20.559Z,34.77
2018-11-07T05:57:49.955Z,33.77
2018-11-07T06:00:19.564Z,35.13
2018-11-07T06:02:49.144Z,37.40
2018-11-07T06:05:18.558Z,35.50
2018-11-07T06:07:48.194Z,34.80
2018-11-07T06:10:17.563Z,35.73
2018-11-07T06:12:46.980Z,37.47
2018-11-07T06:15:16.560Z,36.23
2018-11-07T06:17:45.944Z,35.50
2018-11-07T06:20:15.400Z,33.10
2018-11-07T06:23:47.565Z,35.03
2018-11-07T06:26:16.931Z,34.57
2018-11-07T06:28:46.337Z,34.17
2018-11-07T06:31:15.953Z,34.47
2018-11-07T06:33:45.541Z,32.73
2018-11-07T06:36:14.922Z,33.37
2018-11-07T06:38:44.371Z,34.23
2018-11-07T06:41:13.852Z,33.67
2018-11-07T06:43:43.228Z,33.27
2018-11-07T06:46:12.912Z,34.63
2018-11-07T06:48:42.494Z,35.03
2018-11-07T06:51:11.973Z,35.03
2018-11-07T06:53:41.329Z,36.20
2018-11-07T06:56:10.743Z,36.60
2018-11-07T06:58:40.132Z,36.13
2018-11-07T07:01:09.657Z,34.93
2018-11-07T07:03:39.261Z,33.20
2018-11-07T07:06:08.854Z,33.63
2018-11-07T07:08:38.181Z,36.10
2018-11-07T07:11:08.466Z,33.17
2018-11-07T07:13:38.241Z,32.60
2018-11-07T07:16:07.618Z,33.63
2018-11-07T07:18:37.232Z,32.97
2018-11-07T07:21:06.988Z,33.10
2018-11-07T07:23:36.546Z,33.93
2018-11-07T07:26:05.948Z,33.67
2018-11-07T07:28:35.444Z,35.60
2018-11-07T07:31:04.745Z,33.30
2018-11-07T07:33:34.353Z,35.10
2018-11-07T07:36:03.779Z,36.47
2018-11-07T07:38:33.185Z,36.23
2018-11-07T07:41:02.505Z,38.33
2018-11-07T07:43:31.871Z,38.10
2018-11-07T07:46:01.246Z,39.57
2018-11-07T07:48:30.871Z,38.97
2018-11-07T07:51:00.575Z,40.40
2018-11-07T07:53:29.943Z,38.57
2018-11-07T07:55:59.603Z,39.43
2018-11-07T07:58:29.069Z,39.07
2018-11-07T08:00:58.488Z,40.03
2018-11-07T08:03:27.997Z,39.57
2018-11-07T08:05:57.422Z,41.70
2018-11-07T08:08:26.858Z,42.53
2018-11-07T08:10:56.368Z,39.90
2018-11-07T08:13:25.832Z,39.83
2018-11-07T08:15:55.271Z,39.27
2018-11-07T08:18:24.688Z,38.30
2018-11-07T08:20:54.033Z,36.93
2018-11-07T08:23:23.485Z,36.27
2018-11-07T08:25:52.895Z,36.30
2018-11-07T08:28:22.371Z,34.70
2018-11-07T08:30:51.826Z,35.60
2018-11-07T08:33:21.202Z,35.63
2018-11-07T08:35:50.615Z,37.67
2018-11-07T08:38:20.069Z,35.77
2018-11-07T08:40:49.544Z,33.57
2018-11-07T08:43:18.972Z,35.43
2018-11-07T08:45:48.330Z,36.60
2018-11-07T08:48:17.786Z,36.40
2018-11-07T08:50:47.163Z,33.47
2018-11-07T08:53:16.809Z,33.63
2018-11-07T08:55:46.298Z,35.70
2018-11-07T08:58:15.741Z,34.07
2018-11-07T09:00:45.126Z,34.10
2018-11-07T09:03:14.833Z,34.27
2018-11-07T09:05:44.244Z,39.87
2018-11-07T09:08:13.560Z,36.23
2018-11-07T09:10:43.003Z,35.37
2018-11-07T09:13:12.375Z,34.87
2018-11-07T09:15:41.796Z,33.70
2018-11-07T09:18:11.190Z,34.40
2018-11-07T09:20:40.562Z,34.13
2018-11-07T09:23:09.971Z,32.90
2018-11-07T09:25:39.887Z,32.87
2018-11-07T09:28:09.880Z,31.17
2018-11-07T09:30:39.551Z,30.20
2018-11-07T09:33:09.123Z,28.20
2018-11-07T09:35:38.992Z,26.37
2018-11-07T09:38:08.600Z,26.53
2018-11-07T09:40:38.264Z,26.87
2018-11-07T09:43:07.979Z,31.13
2018-11-07T09:45:37.641Z,26.70
2018-11-07T09:48:07.387Z,27.63
2018-11-07T09:50:36.910Z,29.20
2018-11-07T09:53:06.583Z,27.07
2018-11-07T09:55:36.243Z,29.60
2018-11-07T09:58:05.880Z,29.20
2018-11-07T10:00:35.414Z,28.83
2018-11-07T10:03:05.174Z,26.10
2018-11-07T10:05:35.257Z,31.97
2018-11-07T10:08:04.928Z,27.40
2018-11-07T10:10:34.722Z,26.33
2018-11-07T10:13:04.558Z,24.43
2018-11-07T10:15:34.238Z,22.87
2018-11-07T10:18:03.796Z,24.03
2018-11-07T10:20:33.519Z,24.77
2018-11-07T10:23:03.112Z,24.37
2018-11-07T10:25:32.862Z,23.80
2018-11-07T10:28:05.029Z,24.90
2018-11-07T10:30:34.185Z,21.17
2018-11-07T10:33:03.838Z,23.07
2018-11-07T10:35:33.435Z,20.20
2018-11-07T10:38:03.072Z,21.93
2018-11-07T10:40:32.731Z,23.20
2018-11-07T10:43:02.326Z,22.37
2018-11-07T10:45:32.068Z,24.67
2018-11-07T10:48:01.536Z,25.40
2018-11-07T10:50:31.183Z,22.77
2018-11-07T10:52:59.538Z,18.10
2018-11-07T10:55:29.261Z,19.03
2018-11-07T10:57:58.970Z,19.43
2018-11-07T11:00:33.460Z,20.00
2018-11-07T11:03:10.092Z,19.60
2018-11-07T11:05:40.481Z,23.83
2018-11-07T11:08:10.433Z,20.27
2018-11-07T11:10:40.296Z,21.63
2018-11-07T11:13:09.884Z,18.80
2018-11-07T11:15:39.482Z,21.97
2018-11-07T11:18:09.166Z,18.07
2018-11-07T11:20:38.816Z,17.90
2018-11-07T11:23:08.609Z,20.20
2018-11-07T11:25:38.257Z,23.40
2018-11-07T11:28:07.902Z,23.17
2018-11-07T11:30:37.627Z,19.13
2018-11-07T11:33:07.861Z,18.50
2018-11-07T11:35:37.926Z,20.07
2018-11-07T11:38:07.910Z,17.67
2018-11-07T11:40:37.638Z,19.83
2018-11-07T11:43:07.362Z,18.23
2018-11-07T11:45:37.498Z,18.87
2018-11-07T11:48:07.289Z,16.53
2018-11-07T11:50:36.929Z,18.10
2018-11-07T11:53:06.535Z,18.77
2018-11-07T11:55:36.177Z,19.37
2018-11-07T11:58:05.976Z,18.30
2018-11-07T12:00:35.645Z,17.03
2018-11-07T12:03:05.514Z,17.13
2018-11-07T12:05:35.070Z,17.30
2018-11-07T12:08:04.903Z,17.13
2018-11-07T12:10:34.491Z,17.73
2018-11-07T12:13:04.265Z,17.57
2018-11-07T12:15:33.895Z,17.10
2018-11-07T12:18:03.751Z,17.17
2018-11-07T12:20:33.636Z,18.20
2018-11-07T12:23:03.433Z,17.77
2018-11-07T12:25:33.065Z,17.33
2018-11-07T12:28:02.814Z,17.10
2018-11-07T12:30:32.331Z,16.67
2018-11-07T12:33:02.543Z,18.97
2018-11-07T12:35:32.095Z,16.93
2018-11-07T12:38:01.844Z,16.53
2018-11-07T12:40:31.595Z,15.90
2018-11-07T12:43:01.380Z,14.47
2018-11-07T12:45:31.046Z,22.13
2018-11-07T12:48:01.504Z,15.53
2018-11-07T12:50:31.223Z,16.63
2018-11-07T12:53:00.866Z,16.87
2018-11-07T12:55:30.627Z,14.87
2018-11-07T12:58:00.342Z,16.07
2018-11-07T13:00:29.879Z,16.70
2018-11-07T13:02:59.499Z,16.30
2018-11-07T13:05:29.252Z,15.70
2018-11-07T13:07:59.259Z,14.10
2018-11-07T13:10:29.041Z,18.47
2018-11-07T13:12:59.072Z,15.93
2018-11-07T13:15:28.917Z,14.83
2018-11-07T13:17:58.601Z,16.07
2018-11-07T13:20:28.432Z,15.03
2018-11-07T13:22:59.078Z,14.70
2018-11-07T13:25:28.697Z,16.17
2018-11-07T13:27:58.501Z,15.27
2018-11-07T13:30:28.264Z,14.47
2018-11-07T13:32:58.197Z,14.73
2018-11-07T13:35:27.995Z,15.73
2018-11-07T13:37:58.113Z,13.63
2018-11-07T13:40:27.743Z,14.47
2018-11-07T13:42:58.088Z,14.17
2018-11-07T13:45:28.093Z,14.43
2018-11-07T13:47:59.063Z,16.60
2018-11-07T13:50:28.691Z,14.97
2018-11-07T13:52:58.443Z,14.67
2018-11-07T13:55:28.935Z,13.20
2018-11-07T13:57:58.837Z,13.90
2018-11-07T14:00:28.553Z,12.53
2018-11-07T14:02:59.069Z,12.67
2018-11-07T14:05:29.080Z,12.90
2018-11-07T14:07:58.796Z,17.03
2018-11-07T14:10:28.739Z,19.83
2018-11-07T14:12:58.520Z,19.50
2018-11-07T14:15:28.258Z,15.93
2018-11-07T14:17:58.148Z,19.07
2018-11-07T14:20:27.861Z,20.40
2018-11-07T14:22:57.559Z,19.47
2018-11-07T14:25:27.142Z,20.63
2018-11-07T14:27:57.097Z,19.60
2018-11-07T14:30:26.653Z,19.03
2018-11-07T14:33:00.022Z,19.20
2018-11-07T14:35:29.571Z,19.47
2018-11-07T14:37:59.533Z,20.80
2018-11-07T14:40:29.219Z,22.27
2018-11-07T14:42:59.172Z,20.30
2018-11-07T14:45:28.820Z,25.47
2018-11-07T14:47:58.666Z,25.47
2018-11-07T14:50:28.263Z,26.47
2018-11-07T14:52:57.979Z,30.30
2018-11-07T14:55:27.737Z,30.03
2018-11-07T14:57:57.229Z,29.10
2018-11-07T15:00:26.960Z,29.60
2018-11-07T15:02:56.782Z,27.17
2018-11-07T15:05:26.637Z,27.70
2018-11-07T15:07:56.260Z,25.83
2018-11-07T15:10:26.096Z,51.77
2018-11-07T15:12:55.914Z,32.17
2018-11-07T15:15:25.548Z,27.87
2018-11-07T15:17:55.255Z,28.73
2018-11-07T15:20:24.987Z,25.07
2018-11-07T15:22:54.803Z,25.53
2018-11-07T15:25:24.592Z,25.40
2018-11-07T15:27:54.348Z,30.77
2018-11-07T15:30:24.049Z,26.80
2018-11-07T15:32:53.760Z,26.80
2018-11-07T15:35:23.581Z,32.10
2018-11-07T15:37:53.486Z,37.37
2018-11-07T15:40:23.293Z,27.53
2018-11-07T15:42:53.105Z,24.30
2018-11-07T15:45:22.878Z,24.90
2018-11-07T15:47:52.565Z,29.60
2018-11-07T15:50:27.318Z,33.40
2018-11-07T15:52:57.148Z,28.97
2018-11-07T15:55:26.981Z,30.53
2018-11-07T15:57:56.529Z,31.47
2018-11-07T16:00:26.104Z,32.57
2018-11-07T16:02:55.887Z,31.30
2018-11-07T16:05:25.692Z,33.23
2018-11-07T16:07:55.477Z,32.67
2018-11-07T16:10:25.318Z,38.70
2018-11-07T16:12:54.904Z,35.03
2018-11-07T16:15:24.667Z,34.20
2018-11-07T16:17:54.470Z,34.10
2018-11-07T16:20:24.270Z,36.63
2018-11-07T16:22:54.008Z,43.23
2018-11-07T16:25:23.782Z,43.93
2018-11-07T16:27:53.310Z,47.17
2018-11-07T16:30:23.472Z,46.20
2018-11-07T16:32:53.228Z,40.17
2018-11-07T16:35:23.038Z,42.97
2018-11-07T16:37:52.938Z,38.43
2018-11-07T16:40:22.649Z,38.43
2018-11-07T16:42:52.483Z,40.50
2018-11-07T16:45:22.290Z,41.30
2018-11-07T16:47:52.079Z,43.87
2018-11-07T16:50:21.891Z,48.40
2018-11-07T16:52:51.574Z,48.13
2018-11-07T16:55:21.431Z,47.43
2018-11-07T16:57:51.078Z,50.10
2018-11-07T17:00:21.621Z,47.57
2018-11-07T17:02:51.792Z,48.37
2018-11-07T17:05:21.610Z,46.27
2018-11-07T17:07:51.420Z,44.50
2018-11-07T17:10:21.109Z,46.10
2018-11-07T17:12:50.827Z,45.10
2018-11-07T17:15:20.502Z,47.73
2018-11-07T17:17:50.712Z,50.60
2018-11-07T17:20:20.889Z,68.17
2018-11-07T17:22:50.598Z,46.23
2018-11-07T17:25:21.445Z,48.37
2018-11-07T17:27:51.165Z,48.73
2018-11-07T17:30:21.025Z,47.90
2018-11-07T17:32:50.912Z,42.37
2018-11-07T17:35:20.563Z,41.23
2018-11-07T17:37:50.480Z,44.83
2018-11-07T17:40:21.653Z,52.13
2018-11-07T17:42:51.923Z,54.00
2018-11-07T17:45:22.633Z,53.33
2018-11-07T17:47:53.003Z,48.33
2018-11-07T17:50:23.479Z,50.20
2018-11-07T17:52:53.561Z,46.73
2018-11-07T17:55:23.636Z,47.10
2018-11-07T17:57:54.429Z,41.13
2018-11-07T18:00:35.122Z,42.87
2018-11-07T18:03:04.776Z,41.50
2018-11-07T18:05:34.773Z,34.40
2018-11-07T18:08:04.524Z,32.23
2018-11-07T18:10:35.360Z,31.97
2018-11-07T18:13:05.118Z,34.27
2018-11-07T18:15:35.058Z,49.50
2018-11-07T18:18:04.937Z,48.17
2018-11-07T18:20:34.563Z,48.80
2018-11-07T18:23:04.250Z,45.33
2018-11-07T18:25:33.733Z,45.00
2018-11-07T18:28:03.596Z,45.17
2018-11-07T18:30:34.445Z,45.00
2018-11-07T18:33:04.039Z,42.43
2018-11-07T18:35:33.589Z,44.73
2018-11-07T18:38:03.422Z,42.10
2018-11-07T18:40:33.342Z,42.70
2018-11-07T18:43:02.933Z,43.43
2018-11-07T18:45:32.472Z,41.27
2018-11-07T18:48:02.188Z,44.30
2018-11-07T18:50:31.899Z,45.20
2018-11-07T18:53:01.889Z,46.97
2018-11-07T18:55:31.730Z,43.67
2018-11-07T18:58:01.323Z,45.90
2018-11-07T19:00:31.235Z,45.27
2018-11-07T19:03:01.032Z,46.27
2018-11-07T19:05:30.934Z,49.63
2018-11-07T19:08:00.641Z,51.70
2018-11-07T19:10:30.303Z,53.47
2018-11-07T19:13:00.164Z,56.00
2018-11-07T19:15:29.668Z,54.47
2018-11-07T19:17:59.522Z,56.93
2018-11-07T19:20:29.293Z,53.47
2018-11-07T19:22:58.873Z,52.47
2018-11-07T19:25:28.655Z,55.23
2018-11-07T19:27:58.525Z,54.53
2018-11-07T19:30:28.634Z,56.43
2018-11-07T19:32:58.400Z,54.67
2018-11-07T19:35:28.037Z,54.57
2018-11-07T19:37:57.872Z,53.77
2018-11-07T19:40:27.607Z,52.13
2018-11-07T19:42:57.500Z,52.53
2018-11-07T19:45:27.407Z,53.07
2018-11-07T19:47:57.014Z,51.47
2018-11-07T19:50:26.949Z,49.30
2018-11-07T19:52:56.857Z,50.57
2018-11-07T19:55:26.700Z,50.40
2018-11-07T19:58:00.165Z,49.77
2018-11-07T20:00:30.625Z,49.73
2018-11-07T20:03:00.309Z,52.47
2018-11-07T20:05:30.047Z,48.73
2018-11-07T20:08:00.163Z,49.50
2018-11-07T20:10:30.980Z,48.47
2018-11-07T20:13:00.579Z,50.77
2018-11-07T20:15:30.281Z,46.37
2018-11-07T20:18:00.281Z,48.57
2018-11-07T20:20:30.415Z,49.70
2018-11-07T20:23:00.376Z,47.63
2018-11-07T20:25:30.534Z,48.67
2018-11-07T20:28:00.372Z,48.17
2018-11-07T20:30:30.988Z,45.93
2018-11-07T20:33:00.903Z,43.77
2018-11-07T20:35:30.824Z,45.80
2018-11-07T20:38:00.655Z,43.53
2018-11-07T20:40:31.378Z,46.03
2018-11-07T20:43:01.150Z,44.87
2018-11-07T20:48:51.890Z,43.37
2018-11-07T20:51:21.652Z,43.70
2018-11-07T20:53:51.683Z,43.07
2018-11-07T20:56:21.455Z,43.67
2018-11-07T20:58:51.464Z,44.90
2018-11-07T21:01:21.569Z,45.43
2018-11-07T21:03:51.550Z,45.50
2018-11-07T21:06:21.376Z,45.03
2018-11-07T21:08:51.547Z,45.07
2018-11-07T21:11:21.282Z,51.40
2018-11-07T21:13:51.308Z,44.17
2018-11-07T21:16:21.254Z,41.33
2018-11-07T21:18:51.064Z,42.63
2018-11-07T21:21:21.092Z,42.63
2018-11-07T21:23:51.022Z,44.50
2018-11-07T21:26:20.940Z,42.73
2018-11-07T21:28:50.707Z,43.50
2018-11-07T21:31:20.821Z,43.50
2018-11-07T21:33:50.489Z,42.57
2018-11-07T21:36:20.450Z,45.00
2018-11-07T21:38:50.449Z,44.70
2018-11-07T21:41:20.435Z,44.40
2018-11-07T21:43:50.204Z,43.30
2018-11-07T21:46:19.928Z,42.90
2018-11-07T21:48:50.236Z,42.97
2018-11-07T21:51:20.013Z,42.03
2018-11-07T21:53:49.830Z,45.13
2018-11-07T21:56:19.838Z,43.37
2018-11-07T21:58:49.659Z,45.20
2018-11-07T22:01:20.668Z,45.77
2018-11-07T22:03:51.254Z,45.37
2018-11-07T22:06:21.301Z,46.30
2018-11-07T22:08:51.196Z,47.20
2018-11-07T22:11:20.964Z,46.60
2018-11-07T22:13:50.865Z,49.47
2018-11-07T22:16:20.729Z,48.70
2018-11-07T22:18:50.421Z,46.00
2018-11-07T22:21:20.376Z,47.00
2018-11-07T22:23:50.261Z,46.37
2018-11-07T22:26:20.669Z,49.50
2018-11-07T22:28:50.317Z,47.70
2018-11-07T22:31:20.334Z,48.03
2018-11-07T22:33:50.247Z,47.67
2018-11-07T22:36:21.436Z,47.33
2018-11-07T22:38:52.185Z,47.70
2018-11-07T22:41:22.102Z,45.97
2018-11-07T22:43:52.065Z,46.73
2018-11-07T22:46:22.133Z,46.83
2018-11-07T22:48:52.142Z,44.57
2018-11-07T22:51:21.774Z,45.90
2018-11-07T22:53:51.636Z,45.03
2018-11-07T22:56:21.541Z,45.40
2018-11-07T22:58:51.247Z,43.97
2018-11-07T23:01:24.166Z,43.93
2018-11-07T23:03:54.217Z,43.80
2018-11-07T23:06:25.043Z,44.80
2018-11-07T23:08:54.995Z,44.07
2018-11-07T23:11:24.670Z,45.07
2018-11-07T23:13:54.379Z,43.43
2018-11-07T23:16:24.240Z,46.00
2018-11-07T23:18:54.011Z,44.07
2018-11-07T23:21:23.672Z,43.43
2018-11-07T23:23:53.762Z,43.97
2018-11-07T23:26:23.481Z,44.47
2018-11-07T23:28:53.181Z,44.23
2018-11-07T23:31:23.278Z,44.53
2018-11-07T23:33:52.983Z,43.57
2018-11-07T23:36:50.824Z,39.87
2018-11-07T23:39:21.263Z,43.00
2018-11-07T23:41:51.596Z,45.87
2018-11-07T23:44:21.336Z,47.03
2018-11-07T23:46:51.508Z,45.23
2018-11-07T23:49:21.074Z,44.60
2018-11-07T23:51:51.446Z,44.17
2018-11-07T23:54:22.553Z,46.30
2018-11-07T23:56:53.290Z,48.60
2018-11-07T23:59:23.054Z,46.87
